sensor_id;sensor_type;location;lat;lon;timestamp;noise_LAeq;noise_LA_min;noise_LA_max;noise_LA01;noise_LA95
67398;Laerm;57728;50.448;18.824;2024-03-25T00:00:24;35.10;33.71;41.61;;
67398;Laerm;57728;50.448;18.824;2024-03-25T00:02:25;35.15;33.57;44.00;;
67398;Laerm;57728;50.448;18.824;2024-03-25T00:04:27;35.16;33.73;44.81;;
67398;Laerm;57728;50.448;18.824;2024-03-25T00:06:28;35.13;33.62;40.18;;
67398;Laerm;57728;50.448;18.824;2024-03-25T00:08:34;35.34;33.31;45.62;;
67398;Laerm;57728;50.448;18.824;2024-03-25T00:10:35;35.35;33.77;42.09;;
67398;Laerm;57728;50.448;18.824;2024-03-25T00:12:38;35.52;33.93;45.07;;
67398;Laerm;57728;50.448;18.824;2024-03-25T00:14:39;35.69;33.95;42.87;;
67398;Laerm;57728;50.448;18.824;2024-03-25T00:16:41;35.74;33.79;49.27;;
67398;Laerm;57728;50.448;18.824;2024-03-25T00:18:43;35.67;33.91;44.86;;
67398;Laerm;57728;50.448;18.824;2024-03-25T00:20:44;35.61;33.82;46.06;;
67398;Laerm;57728;50.448;18.824;2024-03-25T00:22:45;35.70;33.75;44.60;;
67398;Laerm;57728;50.448;18.824;2024-03-25T00:24:48;35.71;33.83;47.84;;
67398;Laerm;57728;50.448;18.824;2024-03-25T00:26:49;35.80;33.96;48.60;;
67398;Laerm;57728;50.448;18.824;2024-03-25T00:28:51;35.42;33.92;42.71;;
67398;Laerm;57728;50.448;18.824;2024-03-25T00:30:53;36.28;33.69;54.06;;
67398;Laerm;57728;50.448;18.824;2024-03-25T00:32:54;35.44;33.90;38.42;;
67398;Laerm;57728;50.448;18.824;2024-03-25T00:34:55;35.58;33.79;45.08;;
67398;Laerm;57728;50.448;18.824;2024-03-25T00:36:58;35.23;33.88;43.46;;
67398;Laerm;57728;50.448;18.824;2024-03-25T00:38:59;35.09;33.62;36.62;;
67398;Laerm;57728;50.448;18.824;2024-03-25T00:41:00;35.07;33.66;37.70;;
67398;Laerm;57728;50.448;18.824;2024-03-25T00:43:02;35.06;33.47;37.03;;
67398;Laerm;57728;50.448;18.824;2024-03-25T00:45:04;35.06;33.61;40.63;;
67398;Laerm;57728;50.448;18.824;2024-03-25T00:47:09;35.03;33.64;39.05;;
67398;Laerm;57728;50.448;18.824;2024-03-25T00:49:11;35.13;33.65;41.41;;
67398;Laerm;57728;50.448;18.824;2024-03-25T00:51:12;35.22;33.81;41.69;;
67398;Laerm;57728;50.448;18.824;2024-03-25T00:53:13;35.21;33.76;41.05;;
67398;Laerm;57728;50.448;18.824;2024-03-25T00:55:15;35.50;33.92;41.54;;
67398;Laerm;57728;50.448;18.824;2024-03-25T00:57:16;35.66;33.97;42.33;;
67398;Laerm;57728;50.448;18.824;2024-03-25T00:59:17;35.61;33.88;44.01;;
67398;Laerm;57728;50.448;18.824;2024-03-25T01:01:19;35.68;33.98;43.76;;
67398;Laerm;57728;50.448;18.824;2024-03-25T01:03:20;35.84;33.88;44.64;;
67398;Laerm;57728;50.448;18.824;2024-03-25T01:05:22;35.87;34.07;48.16;;
67398;Laerm;57728;50.448;18.824;2024-03-25T01:07:24;35.70;34.00;40.23;;
67398;Laerm;57728;50.448;18.824;2024-03-25T01:09:25;35.88;34.22;45.77;;
67398;Laerm;57728;50.448;18.824;2024-03-25T01:11:26;35.81;34.16;44.21;;
67398;Laerm;57728;50.448;18.824;2024-03-25T01:13:28;36.00;34.29;45.71;;
67398;Laerm;57728;50.448;18.824;2024-03-25T01:15:29;35.69;33.84;39.81;;
67398;Laerm;57728;50.448;18.824;2024-03-25T01:17:30;35.83;33.88;45.05;;
67398;Laerm;57728;50.448;18.824;2024-03-25T01:19:32;35.73;33.95;44.12;;
67398;Laerm;57728;50.448;18.824;2024-03-25T01:21:33;35.58;33.88;40.06;;
67398;Laerm;57728;50.448;18.824;2024-03-25T01:23:37;35.76;34.07;45.88;;
67398;Laerm;57728;50.448;18.824;2024-03-25T01:25:38;35.66;33.79;44.84;;
67398;Laerm;57728;50.448;18.824;2024-03-25T01:27:40;35.52;33.97;38.41;;
67398;Laerm;57728;50.448;18.824;2024-03-25T01:29:43;35.46;33.99;38.06;;
67398;Laerm;57728;50.448;18.824;2024-03-25T01:31:45;35.47;34.05;37.69;;
67398;Laerm;57728;50.448;18.824;2024-03-25T01:33:47;35.48;33.75;39.97;;
67398;Laerm;57728;50.448;18.824;2024-03-25T01:36:06;35.72;33.93;45.89;;
67398;Laerm;57728;50.448;18.824;2024-03-25T01:38:08;35.40;33.65;43.25;;
67398;Laerm;57728;50.448;18.824;2024-03-25T01:40:10;35.41;33.89;39.70;;
67398;Laerm;57728;50.448;18.824;2024-03-25T01:42:11;35.47;33.81;42.20;;
67398;Laerm;57728;50.448;18.824;2024-03-25T01:44:16;35.70;33.87;48.90;;
67398;Laerm;57728;50.448;18.824;2024-03-25T01:46:18;35.81;33.55;46.56;;
67398;Laerm;57728;50.448;18.824;2024-03-25T01:48:20;35.40;33.82;45.53;;
67398;Laerm;57728;50.448;18.824;2024-03-25T01:50:23;35.93;33.92;48.52;;
67398;Laerm;57728;50.448;18.824;2024-03-25T01:52:27;35.47;33.61;41.99;;
67398;Laerm;57728;50.448;18.824;2024-03-25T01:54:28;35.53;33.88;43.57;;
67398;Laerm;57728;50.448;18.824;2024-03-25T01:56:33;35.57;33.86;45.54;;
67398;Laerm;57728;50.448;18.824;2024-03-25T01:58:35;35.56;33.58;44.06;;
67398;Laerm;57728;50.448;18.824;2024-03-25T02:00:38;35.82;34.10;45.15;;
67398;Laerm;57728;50.448;18.824;2024-03-25T02:02:40;35.64;33.82;44.22;;
67398;Laerm;57728;50.448;18.824;2024-03-25T02:04:54;35.70;33.96;44.88;;
67398;Laerm;57728;50.448;18.824;2024-03-25T02:06:56;36.06;33.90;47.31;;
67398;Laerm;57728;50.448;18.824;2024-03-25T02:09:01;35.77;33.82;41.71;;
67398;Laerm;57728;50.448;18.824;2024-03-25T02:11:06;36.16;34.04;48.68;;
67398;Laerm;57728;50.448;18.824;2024-03-25T02:13:07;35.76;34.02;41.15;;
67398;Laerm;57728;50.448;18.824;2024-03-25T02:15:12;35.76;33.91;48.27;;
67398;Laerm;57728;50.448;18.824;2024-03-25T02:17:13;35.79;33.88;41.95;;
67398;Laerm;57728;50.448;18.824;2024-03-25T02:19:16;36.01;34.06;45.80;;
67398;Laerm;57728;50.448;18.824;2024-03-25T02:21:19;35.66;34.15;40.30;;
67398;Laerm;57728;50.448;18.824;2024-03-25T02:23:20;36.42;34.11;50.84;;
67398;Laerm;57728;50.448;18.824;2024-03-25T02:25:22;35.94;34.16;50.68;;
67398;Laerm;57728;50.448;18.824;2024-03-25T02:27:26;36.84;33.98;51.96;;
67398;Laerm;57728;50.448;18.824;2024-03-25T02:29:35;35.91;34.09;45.58;;
67398;Laerm;57728;50.448;18.824;2024-03-25T02:31:36;36.27;34.08;48.42;;
67398;Laerm;57728;50.448;18.824;2024-03-25T02:33:38;35.67;34.02;41.73;;
67398;Laerm;57728;50.448;18.824;2024-03-25T02:35:43;36.05;33.95;48.38;;
67398;Laerm;57728;50.448;18.824;2024-03-25T02:37:46;35.73;34.12;42.56;;
67398;Laerm;57728;50.448;18.824;2024-03-25T02:39:48;35.96;33.90;48.13;;
67398;Laerm;57728;50.448;18.824;2024-03-25T02:41:50;35.81;34.02;47.01;;
67398;Laerm;57728;50.448;18.824;2024-03-25T02:43:52;35.71;33.90;44.69;;
67398;Laerm;57728;50.448;18.824;2024-03-25T02:45:54;35.68;33.77;42.97;;
67398;Laerm;57728;50.448;18.824;2024-03-25T02:47:55;35.66;34.00;40.96;;
67398;Laerm;57728;50.448;18.824;2024-03-25T02:49:57;35.86;34.01;48.57;;
67398;Laerm;57728;50.448;18.824;2024-03-25T02:51:58;36.16;34.20;52.54;;
67398;Laerm;57728;50.448;18.824;2024-03-25T02:53:59;35.91;33.92;47.47;;
67398;Laerm;57728;50.448;18.824;2024-03-25T02:56:01;35.72;34.10;46.07;;
67398;Laerm;57728;50.448;18.824;2024-03-25T02:58:02;35.76;33.68;46.34;;
67398;Laerm;57728;50.448;18.824;2024-03-25T03:00:03;35.78;33.71;44.34;;
67398;Laerm;57728;50.448;18.824;2024-03-25T03:02:06;35.83;33.76;50.77;;
67398;Laerm;57728;50.448;18.824;2024-03-25T03:04:07;35.78;34.03;43.83;;
67398;Laerm;57728;50.448;18.824;2024-03-25T03:06:08;35.70;34.03;40.39;;
67398;Laerm;57728;50.448;18.824;2024-03-25T03:08:10;35.70;33.98;44.34;;
67398;Laerm;57728;50.448;18.824;2024-03-25T03:10:11;35.62;33.77;41.37;;
67398;Laerm;57728;50.448;18.824;2024-03-25T03:12:12;36.14;34.02;48.09;;
67398;Laerm;57728;50.448;18.824;2024-03-25T03:14:14;35.94;34.02;50.76;;
67398;Laerm;57728;50.448;18.824;2024-03-25T03:16:15;35.77;33.86;49.76;;
67398;Laerm;57728;50.448;18.824;2024-03-25T03:18:17;36.46;34.06;49.31;;
67398;Laerm;57728;50.448;18.824;2024-03-25T03:20:18;35.83;34.02;49.41;;
67398;Laerm;57728;50.448;18.824;2024-03-25T03:22:19;35.91;33.80;46.92;;
67398;Laerm;57728;50.448;18.824;2024-03-25T03:24:21;36.00;34.03;51.92;;
67398;Laerm;57728;50.448;18.824;2024-03-25T03:26:24;36.31;34.09;51.11;;
67398;Laerm;57728;50.448;18.824;2024-03-25T03:28:27;35.91;34.19;47.80;;
67398;Laerm;57728;50.448;18.824;2024-03-25T03:30:29;36.67;34.04;51.50;;
67398;Laerm;57728;50.448;18.824;2024-03-25T03:32:31;37.18;34.06;50.19;;
67398;Laerm;57728;50.448;18.824;2024-03-25T03:34:32;35.67;34.06;41.98;;
67398;Laerm;57728;50.448;18.824;2024-03-25T03:36:33;35.89;33.97;46.43;;
67398;Laerm;57728;50.448;18.824;2024-03-25T03:38:35;35.89;34.16;47.75;;
67398;Laerm;57728;50.448;18.824;2024-03-25T03:40:37;35.69;34.15;42.48;;
67398;Laerm;57728;50.448;18.824;2024-03-25T03:42:38;36.70;33.98;50.53;;
67398;Laerm;57728;50.448;18.824;2024-03-25T03:44:40;36.54;34.07;50.13;;
67398;Laerm;57728;50.448;18.824;2024-03-25T03:46:41;36.58;34.09;49.61;;
67398;Laerm;57728;50.448;18.824;2024-03-25T03:48:42;36.75;34.20;52.58;;
67398;Laerm;57728;50.448;18.824;2024-03-25T03:50:45;36.53;34.13;51.01;;
67398;Laerm;57728;50.448;18.824;2024-03-25T03:52:46;36.25;34.08;50.19;;
67398;Laerm;57728;50.448;18.824;2024-03-25T03:54:47;36.43;34.25;51.66;;
67398;Laerm;57728;50.448;18.824;2024-03-25T03:56:49;38.26;34.21;57.87;;
67398;Laerm;57728;50.448;18.824;2024-03-25T03:58:50;35.96;34.31;43.56;;
67398;Laerm;57728;50.448;18.824;2024-03-25T04:00:51;36.99;34.15;53.56;;
67398;Laerm;57728;50.448;18.824;2024-03-25T04:02:54;37.27;34.12;54.09;;
67398;Laerm;57728;50.448;18.824;2024-03-25T04:04:55;36.02;34.25;50.17;;
67398;Laerm;57728;50.448;18.824;2024-03-25T04:06:56;36.98;34.42;52.48;;
67398;Laerm;57728;50.448;18.824;2024-03-25T04:08:58;36.87;34.11;51.36;;
67398;Laerm;57728;50.448;18.824;2024-03-25T04:11:02;39.63;34.28;58.64;;
67398;Laerm;57728;50.448;18.824;2024-03-25T04:13:04;39.32;34.28;54.68;;
67398;Laerm;57728;50.448;18.824;2024-03-25T04:15:07;38.43;34.36;58.84;;
67398;Laerm;57728;50.448;18.824;2024-03-25T04:17:08;36.43;34.43;47.30;;
67398;Laerm;57728;50.448;18.824;2024-03-25T04:19:09;36.10;34.11;40.94;;
67398;Laerm;57728;50.448;18.824;2024-03-25T04:21:13;37.04;34.39;52.18;;
67398;Laerm;57728;50.448;18.824;2024-03-25T04:23:14;36.79;34.50;50.82;;
67398;Laerm;57728;50.448;18.824;2024-03-25T04:25:15;36.45;34.51;44.83;;
67398;Laerm;57728;50.448;18.824;2024-03-25T04:27:18;36.50;34.46;44.77;;
67398;Laerm;57728;50.448;18.824;2024-03-25T04:29:21;36.85;34.57;51.06;;
67398;Laerm;57728;50.448;18.824;2024-03-25T04:31:22;37.52;34.52;54.23;;
67398;Laerm;57728;50.448;18.824;2024-03-25T04:33:24;36.23;34.42;41.02;;
67398;Laerm;57728;50.448;18.824;2024-03-25T04:35:25;36.52;34.51;42.28;;
67398;Laerm;57728;50.448;18.824;2024-03-25T04:37:30;37.86;34.53;52.62;;
67398;Laerm;57728;50.448;18.824;2024-03-25T04:39:32;36.49;34.64;44.11;;
67398;Laerm;57728;50.448;18.824;2024-03-25T04:41:33;36.59;34.49;45.90;;
67398;Laerm;57728;50.448;18.824;2024-03-25T04:43:34;36.59;34.45;46.31;;
67398;Laerm;57728;50.448;18.824;2024-03-25T04:45:36;38.07;34.59;67.08;;
67398;Laerm;57728;50.448;18.824;2024-03-25T04:47:38;38.19;34.50;67.62;;
67398;Laerm;57728;50.448;18.824;2024-03-25T04:49:39;36.80;34.62;52.39;;
67398;Laerm;57728;50.448;18.824;2024-03-25T04:51:41;37.40;34.72;48.63;;
67398;Laerm;57728;50.448;18.824;2024-03-25T04:53:43;37.34;34.79;59.76;;
67398;Laerm;57728;50.448;18.824;2024-03-25T04:55:44;36.97;34.85;46.54;;
67398;Laerm;57728;50.448;18.824;2024-03-25T04:57:45;38.57;34.53;53.84;;
67398;Laerm;57728;50.448;18.824;2024-03-25T04:59:47;37.09;34.73;52.42;;
67398;Laerm;57728;50.448;18.824;2024-03-25T05:01:48;37.44;34.75;47.81;;
67398;Laerm;57728;50.448;18.824;2024-03-25T05:03:49;37.27;34.97;53.23;;
67398;Laerm;57728;50.448;18.824;2024-03-25T05:05:51;37.27;34.81;48.22;;
67398;Laerm;57728;50.448;18.824;2024-03-25T05:07:52;37.47;34.72;48.29;;
67398;Laerm;57728;50.448;18.824;2024-03-25T05:09:53;37.34;34.89;50.34;;
67398;Laerm;57728;50.448;18.824;2024-03-25T05:11:55;38.99;34.91;67.94;;
67398;Laerm;57728;50.448;18.824;2024-03-25T05:13:56;37.23;34.64;46.87;;
67398;Laerm;57728;50.448;18.824;2024-03-25T05:15:58;37.53;34.83;58.20;;
67398;Laerm;57728;50.448;18.824;2024-03-25T05:17:59;39.10;34.78;67.75;;
67398;Laerm;57728;50.448;18.824;2024-03-25T05:20:00;38.13;34.89;49.71;;
67398;Laerm;57728;50.448;18.824;2024-03-25T05:22:02;39.46;34.96;68.05;;
67398;Laerm;57728;50.448;18.824;2024-03-25T05:24:04;38.15;34.94;59.76;;
67398;Laerm;57728;50.448;18.824;2024-03-25T05:26:05;37.95;34.97;55.94;;
67398;Laerm;57728;50.448;18.824;2024-03-25T05:28:07;38.04;34.99;59.78;;
67398;Laerm;57728;50.448;18.824;2024-03-25T05:30:09;38.51;34.93;49.99;;
67398;Laerm;57728;50.448;18.824;2024-03-25T05:32:10;37.74;35.02;46.50;;
67398;Laerm;57728;50.448;18.824;2024-03-25T05:34:12;37.89;35.05;50.17;;
67398;Laerm;57728;50.448;18.824;2024-03-25T05:36:15;37.93;34.95;53.39;;
67398;Laerm;57728;50.448;18.824;2024-03-25T05:38:16;39.01;34.82;66.65;;
67398;Laerm;57728;50.448;18.824;2024-03-25T05:40:18;37.87;35.08;62.61;;
67398;Laerm;57728;50.448;18.824;2024-03-25T05:42:19;37.44;35.00;49.42;;
67398;Laerm;57728;50.448;18.824;2024-03-25T05:44:21;37.81;35.13;50.27;;
67398;Laerm;57728;50.448;18.824;2024-03-25T05:46:23;38.07;34.91;51.14;;
67398;Laerm;57728;50.448;18.824;2024-03-25T05:48:25;37.39;34.60;47.94;;
67398;Laerm;57728;50.448;18.824;2024-03-25T05:50:27;37.73;34.83;50.49;;
67398;Laerm;57728;50.448;18.824;2024-03-25T05:52:29;37.22;34.71;48.03;;
67398;Laerm;57728;50.448;18.824;2024-03-25T05:54:30;37.40;34.93;46.17;;
67398;Laerm;57728;50.448;18.824;2024-03-25T05:56:32;37.84;34.61;52.81;;
67398;Laerm;57728;50.448;18.824;2024-03-25T05:58:34;37.40;34.84;49.86;;
67398;Laerm;57728;50.448;18.824;2024-03-25T06:00:35;37.54;35.04;56.66;;
67398;Laerm;57728;50.448;18.824;2024-03-25T06:02:36;37.15;34.81;45.16;;
67398;Laerm;57728;50.448;18.824;2024-03-25T06:04:38;37.45;34.76;48.61;;
67398;Laerm;57728;50.448;18.824;2024-03-25T06:06:39;37.50;34.76;45.81;;
67398;Laerm;57728;50.448;18.824;2024-03-25T06:08:40;37.51;34.76;51.23;;
67398;Laerm;57728;50.448;18.824;2024-03-25T06:10:42;37.36;35.08;51.52;;
67398;Laerm;57728;50.448;18.824;2024-03-25T06:12:43;37.86;34.97;52.41;;
67398;Laerm;57728;50.448;18.824;2024-03-25T06:14:44;38.29;34.52;67.25;;
67398;Laerm;57728;50.448;18.824;2024-03-25T06:16:46;37.07;34.52;44.68;;
67398;Laerm;57728;50.448;18.824;2024-03-25T06:18:48;37.30;34.81;47.67;;
67398;Laerm;57728;50.448;18.824;2024-03-25T06:20:49;37.37;34.77;51.90;;
67398;Laerm;57728;50.448;18.824;2024-03-25T06:22:51;38.26;34.75;57.32;;
67398;Laerm;57728;50.448;18.824;2024-03-25T06:24:52;37.16;34.78;48.52;;
67398;Laerm;57728;50.448;18.824;2024-03-25T06:26:54;36.88;34.70;40.51;;
67398;Laerm;57728;50.448;18.824;2024-03-25T06:28:56;37.31;35.05;45.08;;
67398;Laerm;57728;50.448;18.824;2024-03-25T06:30:57;38.19;35.14;53.27;;
67398;Laerm;57728;50.448;18.824;2024-03-25T06:33:16;37.46;35.00;51.60;;
67398;Laerm;57728;50.448;18.824;2024-03-25T06:35:37;37.38;35.02;45.70;;
67398;Laerm;57728;50.448;18.824;2024-03-25T06:37:38;37.27;35.05;41.73;;
67398;Laerm;57728;50.448;18.824;2024-03-25T06:39:39;37.32;35.06;48.25;;
67398;Laerm;57728;50.448;18.824;2024-03-25T06:41:41;37.49;34.99;47.53;;
67398;Laerm;57728;50.448;18.824;2024-03-25T06:43:42;37.41;34.76;51.00;;
67398;Laerm;57728;50.448;18.824;2024-03-25T06:45:44;36.88;34.72;44.77;;
67398;Laerm;57728;50.448;18.824;2024-03-25T06:47:45;36.83;34.82;42.64;;
67398;Laerm;57728;50.448;18.824;2024-03-25T06:49:54;36.76;34.70;45.33;;
67398;Laerm;57728;50.448;18.824;2024-03-25T06:51:55;36.80;34.67;44.55;;
67398;Laerm;57728;50.448;18.824;2024-03-25T06:53:59;38.72;34.75;49.71;;
67398;Laerm;57728;50.448;18.824;2024-03-25T06:56:01;36.96;34.46;49.19;;
67398;Laerm;57728;50.448;18.824;2024-03-25T06:58:02;37.98;34.61;53.42;;
67398;Laerm;57728;50.448;18.824;2024-03-25T07:00:05;37.64;34.80;49.39;;
67398;Laerm;57728;50.448;18.824;2024-03-25T07:02:10;37.28;34.65;48.71;;
67398;Laerm;57728;50.448;18.824;2024-03-25T07:04:11;37.11;34.58;44.15;;
67398;Laerm;57728;50.448;18.824;2024-03-25T07:06:13;36.77;34.45;46.27;;
67398;Laerm;57728;50.448;18.824;2024-03-25T07:08:15;37.27;34.61;50.00;;
67398;Laerm;57728;50.448;18.824;2024-03-25T07:10:16;40.56;34.79;50.85;;
67398;Laerm;57728;50.448;18.824;2024-03-25T07:12:19;39.18;34.73;51.92;;
67398;Laerm;57728;50.448;18.824;2024-03-25T07:14:21;36.79;34.60;46.73;;
67398;Laerm;57728;50.448;18.824;2024-03-25T07:16:22;36.79;34.51;47.68;;
67398;Laerm;57728;50.448;18.824;2024-03-25T07:18:24;36.80;34.66;45.16;;
67398;Laerm;57728;50.448;18.824;2024-03-25T07:20:26;37.48;34.68;52.32;;
67398;Laerm;57728;50.448;18.824;2024-03-25T07:22:27;36.54;34.47;44.43;;
67398;Laerm;57728;50.448;18.824;2024-03-25T07:24:29;36.57;34.64;46.72;;
67398;Laerm;57728;50.448;18.824;2024-03-25T07:26:30;36.50;34.55;44.49;;
67398;Laerm;57728;50.448;18.824;2024-03-25T07:28:31;36.59;34.67;43.84;;
67398;Laerm;57728;50.448;18.824;2024-03-25T07:30:33;37.68;34.84;44.16;;
67398;Laerm;57728;50.448;18.824;2024-03-25T07:32:34;40.74;35.59;51.46;;
67398;Laerm;57728;50.448;18.824;2024-03-25T07:34:35;37.70;34.79;54.15;;
67398;Laerm;57728;50.448;18.824;2024-03-25T07:36:38;38.20;34.44;56.24;;
67398;Laerm;57728;50.448;18.824;2024-03-25T07:38:39;36.82;34.84;40.37;;
67398;Laerm;57728;50.448;18.824;2024-03-25T07:40:40;37.27;34.94;54.16;;
67398;Laerm;57728;50.448;18.824;2024-03-25T07:42:43;37.99;34.87;56.30;;
67398;Laerm;57728;50.448;18.824;2024-03-25T07:44:44;37.21;34.75;48.03;;
67398;Laerm;57728;50.448;18.824;2024-03-25T07:46:45;37.24;34.92;47.78;;
67398;Laerm;57728;50.448;18.824;2024-03-25T07:48:47;37.62;35.39;48.21;;
67398;Laerm;57728;50.448;18.824;2024-03-25T07:50:48;38.23;35.45;54.46;;
67398;Laerm;57728;50.448;18.824;2024-03-25T07:52:49;37.30;35.36;45.36;;
67398;Laerm;57728;50.448;18.824;2024-03-25T07:54:51;37.35;35.21;46.26;;
67398;Laerm;57728;50.448;18.824;2024-03-25T07:56:53;37.07;34.75;43.28;;
67398;Laerm;57728;50.448;18.824;2024-03-25T07:58:54;37.07;34.88;48.31;;
67398;Laerm;57728;50.448;18.824;2024-03-25T08:00:56;37.50;34.86;54.18;;
67398;Laerm;57728;50.448;18.824;2024-03-25T08:02:57;37.71;34.73;51.36;;
67398;Laerm;57728;50.448;18.824;2024-03-25T08:04:58;37.14;34.71;54.27;;
67398;Laerm;57728;50.448;18.824;2024-03-25T08:07:01;37.83;35.02;49.49;;
67398;Laerm;57728;50.448;18.824;2024-03-25T08:09:03;37.95;34.70;54.15;;
67398;Laerm;57728;50.448;18.824;2024-03-25T08:11:06;38.01;35.09;53.52;;
67398;Laerm;57728;50.448;18.824;2024-03-25T08:13:08;37.41;34.91;58.08;;
67398;Laerm;57728;50.448;18.824;2024-03-25T08:15:09;36.53;34.42;46.68;;
67398;Laerm;57728;50.448;18.824;2024-03-25T08:17:10;37.80;34.66;50.79;;
67398;Laerm;57728;50.448;18.824;2024-03-25T08:19:12;37.06;34.50;49.69;;
67398;Laerm;57728;50.448;18.824;2024-03-25T08:21:13;36.93;33.97;54.28;;
67398;Laerm;57728;50.448;18.824;2024-03-25T08:23:14;36.55;34.39;48.05;;
67398;Laerm;57728;50.448;18.824;2024-03-25T08:25:16;36.15;34.14;41.01;;
67398;Laerm;57728;50.448;18.824;2024-03-25T08:27:19;35.83;34.06;43.29;;
67398;Laerm;57728;50.448;18.824;2024-03-25T08:29:20;35.93;34.33;46.65;;
67398;Laerm;57728;50.448;18.824;2024-03-25T08:31:23;36.02;34.01;45.17;;
67398;Laerm;57728;50.448;18.824;2024-03-25T08:33:24;35.84;34.13;43.22;;
67398;Laerm;57728;50.448;18.824;2024-03-25T08:35:25;36.30;34.45;45.56;;
67398;Laerm;57728;50.448;18.824;2024-03-25T08:37:27;36.89;34.51;49.22;;
67398;Laerm;57728;50.448;18.824;2024-03-25T08:39:28;36.27;34.15;51.48;;
67398;Laerm;57728;50.448;18.824;2024-03-25T08:41:29;35.62;34.02;47.04;;
67398;Laerm;57728;50.448;18.824;2024-03-25T08:43:31;37.67;33.96;57.74;;
67398;Laerm;57728;50.448;18.824;2024-03-25T08:45:32;36.46;33.89;54.03;;
67398;Laerm;57728;50.448;18.824;2024-03-25T08:47:33;37.60;33.95;58.83;;
67398;Laerm;57728;50.448;18.824;2024-03-25T08:49:35;37.11;34.14;52.46;;
67398;Laerm;57728;50.448;18.824;2024-03-25T08:51:36;37.09;34.18;50.59;;
67398;Laerm;57728;50.448;18.824;2024-03-25T08:53:37;37.57;34.12;53.02;;
67398;Laerm;57728;50.448;18.824;2024-03-25T08:55:45;36.04;34.12;45.59;;
67398;Laerm;57728;50.448;18.824;2024-03-25T08:57:46;36.89;34.05;51.10;;
67398;Laerm;57728;50.448;18.824;2024-03-25T08:59:47;36.56;34.44;44.47;;
67398;Laerm;57728;50.448;18.824;2024-03-25T09:01:49;37.80;35.11;45.84;;
67398;Laerm;57728;50.448;18.824;2024-03-25T09:03:50;38.78;35.76;43.41;;
67398;Laerm;57728;50.448;18.824;2024-03-25T09:05:51;40.16;35.86;48.65;;
67398;Laerm;57728;50.448;18.824;2024-03-25T09:07:53;40.43;36.40;46.32;;
67398;Laerm;57728;50.448;18.824;2024-03-25T09:09:54;41.03;36.68;51.32;;
67398;Laerm;57728;50.448;18.824;2024-03-25T09:12:14;41.01;36.83;47.21;;
67398;Laerm;57728;50.448;18.824;2024-03-25T09:14:16;40.73;36.80;48.27;;
67398;Laerm;57728;50.448;18.824;2024-03-25T09:16:17;40.70;36.25;53.90;;
67398;Laerm;57728;50.448;18.824;2024-03-25T09:18:18;38.71;34.12;52.79;;
67398;Laerm;57728;50.448;18.824;2024-03-25T09:20:22;36.26;33.91;51.65;;
67398;Laerm;57728;50.448;18.824;2024-03-25T09:22:25;37.09;33.91;52.11;;
67398;Laerm;57728;50.448;18.824;2024-03-25T09:24:26;43.49;33.97;64.86;;
67398;Laerm;57728;50.448;18.824;2024-03-25T09:26:28;38.88;33.96;61.78;;
67398;Laerm;57728;50.448;18.824;2024-03-25T09:28:29;42.26;33.97;64.16;;
67398;Laerm;57728;50.448;18.824;2024-03-25T09:30:33;41.26;34.16;69.91;;
67398;Laerm;57728;50.448;18.824;2024-03-25T09:32:35;38.29;33.69;55.05;;
67398;Laerm;57728;50.448;18.824;2024-03-25T09:34:36;36.61;33.60;49.40;;
67398;Laerm;57728;50.448;18.824;2024-03-25T09:36:37;36.13;33.89;49.80;;
67398;Laerm;57728;50.448;18.824;2024-03-25T09:38:40;37.41;34.40;55.94;;
67398;Laerm;57728;50.448;18.824;2024-03-25T09:40:41;38.10;34.49;66.81;;
67398;Laerm;57728;50.448;18.824;2024-03-25T09:42:52;36.26;34.27;47.30;;
67398;Laerm;57728;50.448;18.824;2024-03-25T09:44:57;37.42;34.04;57.08;;
67398;Laerm;57728;50.448;18.824;2024-03-25T09:47:00;36.27;34.09;46.00;;
67398;Laerm;57728;50.448;18.824;2024-03-25T09:49:02;37.42;34.78;49.76;;
67398;Laerm;57728;50.448;18.824;2024-03-25T09:51:09;39.29;35.55;54.35;;
67398;Laerm;57728;50.448;18.824;2024-03-25T09:53:10;39.82;36.15;46.95;;
67398;Laerm;57728;50.448;18.824;2024-03-25T09:55:11;40.56;36.38;52.60;;
67398;Laerm;57728;50.448;18.824;2024-03-25T09:57:14;40.92;35.34;61.61;;
67398;Laerm;57728;50.448;18.824;2024-03-25T09:59:18;39.31;34.90;55.33;;
67398;Laerm;57728;50.448;18.824;2024-03-25T10:01:20;38.93;33.66;56.21;;
67398;Laerm;57728;50.448;18.824;2024-03-25T10:03:22;35.52;33.52;53.96;;
67398;Laerm;57728;50.448;18.824;2024-03-25T10:05:23;41.04;33.58;61.76;;
67398;Laerm;57728;50.448;18.824;2024-03-25T10:07:25;34.82;33.25;47.87;;
67398;Laerm;57728;50.448;18.824;2024-03-25T10:09:28;35.35;33.18;48.34;;
67398;Laerm;57728;50.448;18.824;2024-03-25T10:11:29;42.74;33.42;60.92;;
67398;Laerm;57728;50.448;18.824;2024-03-25T10:13:33;37.66;33.57;54.09;;
67398;Laerm;57728;50.448;18.824;2024-03-25T10:15:35;37.05;33.46;54.75;;
67398;Laerm;57728;50.448;18.824;2024-03-25T10:17:36;35.64;33.50;49.62;;
67398;Laerm;57728;50.448;18.824;2024-03-25T10:19:37;35.59;33.36;51.79;;
67398;Laerm;57728;50.448;18.824;2024-03-25T10:21:39;40.19;33.53;63.04;;
67398;Laerm;57728;50.448;18.824;2024-03-25T10:23:40;36.24;33.70;53.21;;
67398;Laerm;57728;50.448;18.824;2024-03-25T10:25:43;40.30;33.65;55.19;;
67398;Laerm;57728;50.448;18.824;2024-03-25T10:27:56;41.32;33.57;61.26;;
67398;Laerm;57728;50.448;18.824;2024-03-25T10:29:57;37.03;33.52;52.51;;
67398;Laerm;57728;50.448;18.824;2024-03-25T10:32:02;34.72;33.35;46.69;;
67398;Laerm;57728;50.448;18.824;2024-03-25T10:34:05;36.01;33.32;48.94;;
67398;Laerm;57728;50.448;18.824;2024-03-25T10:36:10;35.87;33.34;56.41;;
67398;Laerm;57728;50.448;18.824;2024-03-25T10:38:16;36.49;33.75;46.83;;
67398;Laerm;57728;50.448;18.824;2024-03-25T10:40:27;36.59;33.89;50.26;;
67398;Laerm;57728;50.448;18.824;2024-03-25T10:42:31;38.48;34.36;59.38;;
67398;Laerm;57728;50.448;18.824;2024-03-25T10:44:33;37.17;34.45;48.56;;
67398;Laerm;57728;50.448;18.824;2024-03-25T10:46:36;37.26;34.93;48.80;;
67398;Laerm;57728;50.448;18.824;2024-03-25T10:48:48;36.73;34.09;53.67;;
67398;Laerm;57728;50.448;18.824;2024-03-25T10:50:56;39.38;34.06;62.23;;
67398;Laerm;57728;50.448;18.824;2024-03-25T10:53:00;36.71;33.68;52.23;;
67398;Laerm;57728;50.448;18.824;2024-03-25T10:55:05;37.42;33.69;55.68;;
67398;Laerm;57728;50.448;18.824;2024-03-25T10:57:11;38.89;33.78;58.92;;
67398;Laerm;57728;50.448;18.824;2024-03-25T10:59:15;38.02;33.56;57.67;;
67398;Laerm;57728;50.448;18.824;2024-03-25T11:01:20;36.03;33.73;48.08;;
67398;Laerm;57728;50.448;18.824;2024-03-25T11:03:26;36.93;34.18;54.61;;
67398;Laerm;57728;50.448;18.824;2024-03-25T11:05:29;38.28;34.20;58.75;;
67398;Laerm;57728;50.448;18.824;2024-03-25T11:07:31;37.30;34.49;54.07;;
67398;Laerm;57728;50.448;18.824;2024-03-25T11:09:33;36.31;34.04;53.21;;
67398;Laerm;57728;50.448;18.824;2024-03-25T11:11:35;36.15;33.68;47.76;;
67398;Laerm;57728;50.448;18.824;2024-03-25T11:13:37;37.94;33.55;56.37;;